sensor_id;sensor_type;location;lat;lon;timestamp;P1;durP1;ratioP1;P2;durP2;ratioP2
49217;SDS011;35045;51.194;7.268;2022-10-31T00:00:00;13.13;;;6.85;;
49217;SDS011;35045;51.194;7.268;2022-10-31T00:02:26;11.35;;;6.40;;
49217;SDS011;35045;51.194;7.268;2022-10-31T00:04:53;12.65;;;6.68;;
49217;SDS011;35045;51.194;7.268;2022-10-31T00:07:19;12.45;;;6.63;;
49217;SDS011;35045;51.194;7.268;2022-10-31T00:09:45;16.92;;;6.45;;
49217;SDS011;35045;51.194;7.268;2022-10-31T00:12:11;15.30;;;6.95;;
49217;SDS011;35045;51.194;7.268;2022-10-31T00:14:37;14.10;;;6.68;;
49217;SDS011;35045;51.194;7.268;2022-10-31T00:17:03;12.43;;;6.57;;
49217;SDS011;35045;51.194;7.268;2022-10-31T00:19:29;13.57;;;6.07;;
49217;SDS011;35045;51.194;7.268;2022-10-31T00:21:56;14.68;;;6.32;;
49217;SDS011;35045;51.194;7.268;2022-10-31T00:24:22;12.88;;;6.13;;
49217;SDS011;35045;51.194;7.268;2022-10-31T00:26:48;14.20;;;7.63;;
49217;SDS011;35045;51.194;7.268;2022-10-31T00:29:14;11.63;;;7.35;;
49217;SDS011;35045;51.194;7.268;2022-10-31T00:31:40;10.73;;;6.75;;
49217;SDS011;35045;51.194;7.268;2022-10-31T00:34:06;12.07;;;6.28;;
49217;SDS011;35045;51.194;7.268;2022-10-31T00:36:32;17.40;;;6.68;;
49217;SDS011;35045;51.194;7.268;2022-10-31T00:38:59;14.77;;;6.75;;
49217;SDS011;35045;51.194;7.268;2022-10-31T00:41:25;12.38;;;6.95;;
49217;SDS011;35045;51.194;7.268;2022-10-31T00:43:51;13.65;;;6.95;;
49217;SDS011;35045;51.194;7.268;2022-10-31T00:46:18;15.10;;;7.30;;
49217;SDS011;35045;51.194;7.268;2022-10-31T00:48:44;20.02;;;7.45;;
49217;SDS011;35045;51.194;7.268;2022-10-31T00:51:10;13.50;;;7.07;;
49217;SDS011;35045;51.194;7.268;2022-10-31T00:53:36;16.15;;;6.78;;
49217;SDS011;35045;51.194;7.268;2022-10-31T00:56:02;13.20;;;6.53;;
49217;SDS011;35045;51.194;7.268;2022-10-31T00:58:29;14.95;;;7.25;;
49217;SDS011;35045;51.194;7.268;2022-10-31T01:00:55;16.27;;;7.57;;
49217;SDS011;35045;51.194;7.268;2022-10-31T01:03:25;10.43;;;6.72;;
49217;SDS011;35045;51.194;7.268;2022-10-31T01:08:27;13.48;;;6.95;;
49217;SDS011;35045;51.194;7.268;2022-10-31T01:13:43;14.65;;;7.38;;
49217;SDS011;35045;51.194;7.268;2022-10-31T01:16:10;15.05;;;7.28;;
49217;SDS011;35045;51.194;7.268;2022-10-31T01:18:38;15.90;;;7.80;;
49217;SDS011;35045;51.194;7.268;2022-10-31T01:21:12;12.40;;;6.88;;
49217;SDS011;35045;51.194;7.268;2022-10-31T01:23:41;13.02;;;7.65;;
49217;SDS011;35045;51.194;7.268;2022-10-31T01:28:50;14.35;;;6.50;;
49217;SDS011;35045;51.194;7.268;2022-10-31T01:31:18;11.27;;;6.90;;
49217;SDS011;35045;51.194;7.268;2022-10-31T01:33:46;12.20;;;7.03;;
49217;SDS011;35045;51.194;7.268;2022-10-31T01:38:49;11.55;;;7.25;;
49217;SDS011;35045;51.194;7.268;2022-10-31T01:41:18;14.55;;;7.38;;
49217;SDS011;35045;51.194;7.268;2022-10-31T01:46:25;15.05;;;7.50;;
49217;SDS011;35045;51.194;7.268;2022-10-31T01:48:55;17.10;;;7.07;;
49217;SDS011;35045;51.194;7.268;2022-10-31T01:51:26;12.57;;;7.28;;
49217;SDS011;35045;51.194;7.268;2022-10-31T01:53:57;10.35;;;6.25;;
49217;SDS011;35045;51.194;7.268;2022-10-31T01:56:26;12.15;;;7.38;;
49217;SDS011;35045;51.194;7.268;2022-10-31T01:58:53;12.95;;;7.43;;
49217;SDS011;35045;51.194;7.268;2022-10-31T02:01:22;13.77;;;7.18;;
49217;SDS011;35045;51.194;7.268;2022-10-31T02:03:48;11.65;;;7.13;;
49217;SDS011;35045;51.194;7.268;2022-10-31T02:06:20;14.50;;;6.57;;
49217;SDS011;35045;51.194;7.268;2022-10-31T02:08:56;11.73;;;6.35;;
49217;SDS011;35045;51.194;7.268;2022-10-31T02:11:25;14.27;;;7.32;;
49217;SDS011;35045;51.194;7.268;2022-10-31T02:13:53;13.30;;;7.22;;
49217;SDS011;35045;51.194;7.268;2022-10-31T02:16:20;11.20;;;6.35;;
49217;SDS011;35045;51.194;7.268;2022-10-31T02:18:46;11.95;;;6.90;;
49217;SDS011;35045;51.194;7.268;2022-10-31T02:26:37;13.98;;;6.85;;
49217;SDS011;35045;51.194;7.268;2022-10-31T02:32:21;11.90;;;6.57;;
49217;SDS011;35045;51.194;7.268;2022-10-31T02:35:13;13.98;;;7.05;;
49217;SDS011;35045;51.194;7.268;2022-10-31T02:38:09;12.57;;;6.75;;
49217;SDS011;35045;51.194;7.268;2022-10-31T02:41:25;11.10;;;6.82;;
49217;SDS011;35045;51.194;7.268;2022-10-31T02:43:55;12.38;;;7.47;;
49217;SDS011;35045;51.194;7.268;2022-10-31T02:46:39;11.80;;;6.93;;
49217;SDS011;35045;51.194;7.268;2022-10-31T02:49:25;11.90;;;6.95;;
49217;SDS011;35045;51.194;7.268;2022-10-31T02:51:56;12.95;;;7.18;;
49217;SDS011;35045;51.194;7.268;2022-10-31T02:54:23;13.40;;;7.28;;
49217;SDS011;35045;51.194;7.268;2022-10-31T02:56:52;17.25;;;7.97;;
49217;SDS011;35045;51.194;7.268;2022-10-31T02:59:22;13.32;;;7.10;;
49217;SDS011;35045;51.194;7.268;2022-10-31T03:07:27;13.40;;;7.63;;
49217;SDS011;35045;51.194;7.268;2022-10-31T03:10:09;12.13;;;7.20;;
49217;SDS011;35045;51.194;7.268;2022-10-31T03:13:20;13.20;;;7.68;;
49217;SDS011;35045;51.194;7.268;2022-10-31T03:15:53;14.27;;;7.85;;
49217;SDS011;35045;51.194;7.268;2022-10-31T03:18:34;12.40;;;7.65;;
49217;SDS011;35045;51.194;7.268;2022-10-31T03:24:10;11.57;;;7.10;;
49217;SDS011;35045;51.194;7.268;2022-10-31T03:26:38;14.65;;;7.50;;
49217;SDS011;35045;51.194;7.268;2022-10-31T03:29:08;12.10;;;6.88;;
49217;SDS011;35045;51.194;7.268;2022-10-31T03:34:32;15.05;;;8.30;;
49217;SDS011;35045;51.194;7.268;2022-10-31T03:37:01;15.70;;;7.38;;
49217;SDS011;35045;51.194;7.268;2022-10-31T03:39:32;14.27;;;6.60;;
49217;SDS011;35045;51.194;7.268;2022-10-31T03:42:00;12.95;;;7.63;;
49217;SDS011;35045;51.194;7.268;2022-10-31T03:44:31;11.73;;;7.38;;
49217;SDS011;35045;51.194;7.268;2022-10-31T03:47:00;12.20;;;7.03;;
49217;SDS011;35045;51.194;7.268;2022-10-31T03:49:27;15.40;;;8.57;;
49217;SDS011;35045;51.194;7.268;2022-10-31T03:52:13;13.25;;;7.90;;
49217;SDS011;35045;51.194;7.268;2022-10-31T03:54:54;12.48;;;8.18;;
49217;SDS011;35045;51.194;7.268;2022-10-31T03:57:35;15.00;;;7.82;;
49217;SDS011;35045;51.194;7.268;2022-10-31T04:00:07;13.70;;;8.80;;
49217;SDS011;35045;51.194;7.268;2022-10-31T04:02:37;14.30;;;8.05;;
49217;SDS011;35045;51.194;7.268;2022-10-31T04:05:06;11.70;;;7.13;;
49217;SDS011;35045;51.194;7.268;2022-10-31T04:07:36;13.00;;;7.38;;
49217;SDS011;35045;51.194;7.268;2022-10-31T04:10:07;15.38;;;8.07;;
49217;SDS011;35045;51.194;7.268;2022-10-31T04:12:36;13.85;;;8.00;;
49217;SDS011;35045;51.194;7.268;2022-10-31T04:15:05;14.70;;;7.90;;
49217;SDS011;35045;51.194;7.268;2022-10-31T04:17:34;14.30;;;7.93;;
49217;SDS011;35045;51.194;7.268;2022-10-31T04:20:04;14.60;;;7.97;;
49217;SDS011;35045;51.194;7.268;2022-10-31T04:22:31;13.40;;;7.68;;
49217;SDS011;35045;51.194;7.268;2022-10-31T04:24:57;17.95;;;8.57;;
49217;SDS011;35045;51.194;7.268;2022-10-31T04:27:24;17.95;;;8.77;;
49217;SDS011;35045;51.194;7.268;2022-10-31T04:29:50;13.88;;;8.40;;
49217;SDS011;35045;51.194;7.268;2022-10-31T04:32:16;15.13;;;8.23;;
49217;SDS011;35045;51.194;7.268;2022-10-31T04:34:43;15.32;;;7.82;;
49217;SDS011;35045;51.194;7.268;2022-10-31T04:37:09;12.52;;;7.65;;
49217;SDS011;35045;51.194;7.268;2022-10-31T04:39:35;14.63;;;7.28;;
49217;SDS011;35045;51.194;7.268;2022-10-31T04:42:01;14.82;;;9.10;;
49217;SDS011;35045;51.194;7.268;2022-10-31T04:44:27;11.88;;;7.65;;
49217;SDS011;35045;51.194;7.268;2022-10-31T04:46:53;14.50;;;8.50;;
49217;SDS011;35045;51.194;7.268;2022-10-31T04:49:19;13.02;;;8.18;;
49217;SDS011;35045;51.194;7.268;2022-10-31T04:51:46;15.65;;;8.40;;
49217;SDS011;35045;51.194;7.268;2022-10-31T04:54:12;12.98;;;8.07;;
49217;SDS011;35045;51.194;7.268;2022-10-31T04:56:38;12.95;;;7.53;;
49217;SDS011;35045;51.194;7.268;2022-10-31T04:59:04;13.00;;;7.65;;
49217;SDS011;35045;51.194;7.268;2022-10-31T05:01:30;17.40;;;8.82;;
49217;SDS011;35045;51.194;7.268;2022-10-31T05:03:56;13.55;;;7.70;;
49217;SDS011;35045;51.194;7.268;2022-10-31T05:06:23;14.27;;;7.93;;
49217;SDS011;35045;51.194;7.268;2022-10-31T05:08:49;16.38;;;8.43;;
49217;SDS011;35045;51.194;7.268;2022-10-31T05:11:15;13.77;;;7.72;;
49217;SDS011;35045;51.194;7.268;2022-10-31T05:13:41;14.35;;;7.72;;
49217;SDS011;35045;51.194;7.268;2022-10-31T05:16:07;15.07;;;7.85;;
49217;SDS011;35045;51.194;7.268;2022-10-31T05:18:33;12.68;;;7.60;;
49217;SDS011;35045;51.194;7.268;2022-10-31T05:21:00;14.32;;;8.02;;
49217;SDS011;35045;51.194;7.268;2022-10-31T05:23:26;15.02;;;8.32;;
49217;SDS011;35045;51.194;7.268;2022-10-31T05:25:52;15.45;;;9.40;;
49217;SDS011;35045;51.194;7.268;2022-10-31T05:28:18;16.02;;;9.15;;
49217;SDS011;35045;51.194;7.268;2022-10-31T05:30:44;14.02;;;8.55;;
49217;SDS011;35045;51.194;7.268;2022-10-31T05:33:10;19.10;;;11.35;;
49217;SDS011;35045;51.194;7.268;2022-10-31T05:35:36;14.80;;;8.45;;
49217;SDS011;35045;51.194;7.268;2022-10-31T05:38:03;14.25;;;8.40;;
49217;SDS011;35045;51.194;7.268;2022-10-31T05:40:29;13.65;;;8.95;;
49217;SDS011;35045;51.194;7.268;2022-10-31T05:42:55;18.30;;;10.70;;
49217;SDS011;35045;51.194;7.268;2022-10-31T05:45:24;18.42;;;10.32;;
49217;SDS011;35045;51.194;7.268;2022-10-31T05:47:57;18.45;;;10.13;;
49217;SDS011;35045;51.194;7.268;2022-10-31T05:50:25;17.38;;;10.68;;
49217;SDS011;35045;51.194;7.268;2022-10-31T05:53:10;17.92;;;11.23;;
49217;SDS011;35045;51.194;7.268;2022-10-31T05:55:36;17.77;;;10.50;;
49217;SDS011;35045;51.194;7.268;2022-10-31T05:58:02;22.40;;;13.45;;
49217;SDS011;35045;51.194;7.268;2022-10-31T06:00:29;21.77;;;12.48;;
49217;SDS011;35045;51.194;7.268;2022-10-31T06:03:01;23.30;;;14.93;;
49217;SDS011;35045;51.194;7.268;2022-10-31T06:05:29;25.15;;;14.85;;
49217;SDS011;35045;51.194;7.268;2022-10-31T06:07:56;24.83;;;15.82;;
49217;SDS011;35045;51.194;7.268;2022-10-31T06:10:23;26.65;;;15.77;;
49217;SDS011;35045;51.194;7.268;2022-10-31T06:12:50;24.58;;;16.00;;
49217;SDS011;35045;51.194;7.268;2022-10-31T06:15:16;26.80;;;16.13;;
49217;SDS011;35045;51.194;7.268;2022-10-31T06:17:45;19.73;;;13.15;;
49217;SDS011;35045;51.194;7.268;2022-10-31T06:20:11;22.33;;;14.30;;
49217;SDS011;35045;51.194;7.268;2022-10-31T06:22:38;28.92;;;17.95;;
49217;SDS011;35045;51.194;7.268;2022-10-31T06:25:04;24.08;;;15.88;;
49217;SDS011;35045;51.194;7.268;2022-10-31T06:27:30;19.85;;;11.65;;
49217;SDS011;35045;51.194;7.268;2022-10-31T06:29:56;18.40;;;10.95;;
49217;SDS011;35045;51.194;7.268;2022-10-31T06:32:22;27.38;;;16.75;;
49217;SDS011;35045;51.194;7.268;2022-10-31T06:34:49;25.45;;;15.02;;
49217;SDS011;35045;51.194;7.268;2022-10-31T06:37:15;31.17;;;17.70;;
49217;SDS011;35045;51.194;7.268;2022-10-31T06:39:41;29.55;;;18.05;;
49217;SDS011;35045;51.194;7.268;2022-10-31T06:42:07;33.30;;;20.02;;
49217;SDS011;35045;51.194;7.268;2022-10-31T06:44:34;28.95;;;17.13;;
49217;SDS011;35045;51.194;7.268;2022-10-31T06:47:00;16.80;;;11.40;;
49217;SDS011;35045;51.194;7.268;2022-10-31T06:49:26;21.45;;;13.70;;
49217;SDS011;35045;51.194;7.268;2022-10-31T06:51:52;27.13;;;17.13;;
49217;SDS011;35045;51.194;7.268;2022-10-31T06:54:18;33.20;;;18.05;;
49217;SDS011;35045;51.194;7.268;2022-10-31T06:56:48;28.38;;;18.42;;
49217;SDS011;35045;51.194;7.268;2022-10-31T06:59:14;25.40;;;16.67;;
49217;SDS011;35045;51.194;7.268;2022-10-31T07:01:41;31.15;;;19.00;;
49217;SDS011;35045;51.194;7.268;2022-10-31T07:04:08;31.27;;;18.70;;
49217;SDS011;35045;51.194;7.268;2022-10-31T07:06:35;31.23;;;19.45;;
49217;SDS011;35045;51.194;7.268;2022-10-31T07:09:02;31.40;;;19.70;;
49217;SDS011;35045;51.194;7.268;2022-10-31T07:11:28;31.02;;;21.50;;
49217;SDS011;35045;51.194;7.268;2022-10-31T07:13:54;35.13;;;20.52;;
49217;SDS011;35045;51.194;7.268;2022-10-31T07:16:21;35.40;;;20.23;;
49217;SDS011;35045;51.194;7.268;2022-10-31T07:18:47;31.23;;;20.27;;
49217;SDS011;35045;51.194;7.268;2022-10-31T07:21:13;32.47;;;20.67;;
49217;SDS011;35045;51.194;7.268;2022-10-31T07:23:39;31.42;;;19.63;;
49217;SDS011;35045;51.194;7.268;2022-10-31T07:26:06;30.98;;;19.58;;
49217;SDS011;35045;51.194;7.268;2022-10-31T07:28:33;34.13;;;20.70;;
49217;SDS011;35045;51.194;7.268;2022-10-31T07:30:59;29.33;;;17.52;;
49217;SDS011;35045;51.194;7.268;2022-10-31T07:33:25;29.58;;;19.38;;
49217;SDS011;35045;51.194;7.268;2022-10-31T07:35:52;32.13;;;21.33;;
49217;SDS011;35045;51.194;7.268;2022-10-31T07:38:19;34.03;;;21.17;;
49217;SDS011;35045;51.194;7.268;2022-10-31T07:40:48;34.28;;;23.42;;
49217;SDS011;35045;51.194;7.268;2022-10-31T07:43:16;31.35;;;21.48;;
49217;SDS011;35045;51.194;7.268;2022-10-31T07:45:42;33.17;;;20.58;;
49217;SDS011;35045;51.194;7.268;2022-10-31T07:48:08;34.83;;;20.70;;
49217;SDS011;35045;51.194;7.268;2022-10-31T07:50:35;32.70;;;21.13;;
49217;SDS011;35045;51.194;7.268;2022-10-31T07:53:02;31.17;;;20.92;;
49217;SDS011;35045;51.194;7.268;2022-10-31T07:55:29;33.72;;;21.20;;
49217;SDS011;35045;51.194;7.268;2022-10-31T07:57:59;34.72;;;20.80;;
49217;SDS011;35045;51.194;7.268;2022-10-31T08:00:27;33.78;;;20.23;;
49217;SDS011;35045;51.194;7.268;2022-10-31T08:03:27;32.15;;;20.40;;
49217;SDS011;35045;51.194;7.268;2022-10-31T08:05:46;30.80;;;19.77;;
49217;SDS011;35045;51.194;7.268;2022-10-31T08:08:13;28.65;;;18.35;;
49217;SDS011;35045;51.194;7.268;2022-10-31T08:10:39;30.15;;;19.15;;
49217;SDS011;35045;51.194;7.268;2022-10-31T08:13:07;32.70;;;19.42;;
49217;SDS011;35045;51.194;7.268;2022-10-31T08:15:35;34.25;;;18.75;;
49217;SDS011;35045;51.194;7.268;2022-10-31T08:18:04;30.85;;;19.85;;
49217;SDS011;35045;51.194;7.268;2022-10-31T08:20:31;31.90;;;18.10;;
49217;SDS011;35045;51.194;7.268;2022-10-31T08:22:58;29.95;;;18.90;;
49217;SDS011;35045;51.194;7.268;2022-10-31T08:25:26;31.38;;;19.15;;
49217;SDS011;35045;51.194;7.268;2022-10-31T08:27:54;32.90;;;18.38;;
49217;SDS011;35045;51.194;7.268;2022-10-31T08:30:24;26.35;;;17.23;;
49217;SDS011;35045;51.194;7.268;2022-10-31T08:33:25;29.55;;;18.55;;
49217;SDS011;35045;51.194;7.268;2022-10-31T08:35:44;26.98;;;17.17;;
49217;SDS011;35045;51.194;7.268;2022-10-31T08:38:11;29.25;;;17.45;;
49217;SDS011;35045;51.194;7.268;2022-10-31T08:40:38;29.48;;;16.98;;
49217;SDS011;35045;51.194;7.268;2022-10-31T08:43:05;24.58;;;15.68;;
49217;SDS011;35045;51.194;7.268;2022-10-31T08:45:36;26.52;;;16.70;;
49217;SDS011;35045;51.194;7.268;2022-10-31T08:48:03;23.77;;;15.43;;
49217;SDS011;35045;51.194;7.268;2022-10-31T08:50:31;22.80;;;14.38;;
49217;SDS011;35045;51.194;7.268;2022-10-31T08:52:59;25.70;;;14.27;;
49217;SDS011;35045;51.194;7.268;2022-10-31T08:55:29;26.17;;;13.73;;
49217;SDS011;35045;51.194;7.268;2022-10-31T08:57:56;27.00;;;14.05;;
49217;SDS011;35045;51.194;7.268;2022-10-31T09:00:24;22.17;;;12.68;;
49217;SDS011;35045;51.194;7.268;2022-10-31T09:02:57;26.05;;;13.98;;
49217;SDS011;35045;51.194;7.268;2022-10-31T09:05:24;24.27;;;13.68;;
49217;SDS011;35045;51.194;7.268;2022-10-31T09:07:52;23.75;;;13.15;;
49217;SDS011;35045;51.194;7.268;2022-10-31T09:10:22;26.40;;;13.35;;
49217;SDS011;35045;51.194;7.268;2022-10-31T09:12:54;18.83;;;12.55;;
49217;SDS011;35045;51.194;7.268;2022-10-31T09:15:34;21.73;;;12.68;;
49217;SDS011;35045;51.194;7.268;2022-10-31T09:18:02;22.20;;;13.55;;
49217;SDS011;35045;51.194;7.268;2022-10-31T09:20:29;26.15;;;13.30;;
49217;SDS011;35045;51.194;7.268;2022-10-31T09:22:56;21.75;;;12.65;;
49217;SDS011;35045;51.194;7.268;2022-10-31T09:25:27;30.15;;;13.75;;
49217;SDS011;35045;51.194;7.268;2022-10-31T09:27:57;22.60;;;13.38;;
49217;SDS011;35045;51.194;7.268;2022-10-31T09:30:24;24.33;;;13.18;;
49217;SDS011;35045;51.194;7.268;2022-10-31T09:32:59;24.17;;;12.65;;
49217;SDS011;35045;51.194;7.268;2022-10-31T09:35:26;22.58;;;12.30;;
49217;SDS011;35045;51.194;7.268;2022-10-31T09:37:57;26.38;;;11.80;;
49217;SDS011;35045;51.194;7.268;2022-10-31T09:40:35;24.95;;;11.75;;
49217;SDS011;35045;51.194;7.268;2022-10-31T09:43:07;21.27;;;12.80;;
49217;SDS011;35045;51.194;7.268;2022-10-31T09:46:04;20.58;;;12.13;;
49217;SDS011;35045;51.194;7.268;2022-10-31T09:54:12;22.73;;;11.50;;
49217;SDS011;35045;51.194;7.268;2022-10-31T09:56:43;22.80;;;12.18;;
49217;SDS011;35045;51.194;7.268;2022-10-31T09:59:18;20.33;;;11.40;;
49217;SDS011;35045;51.194;7.268;2022-10-31T10:01:56;20.77;;;10.70;;
49217;SDS011;35045;51.194;7.268;2022-10-31T10:04:48;18.63;;;9.88;;
49217;SDS011;35045;51.194;7.268;2022-10-31T10:09:50;19.60;;;10.25;;
49217;SDS011;35045;51.194;7.268;2022-10-31T10:12:18;17.98;;;10.23;;
49217;SDS011;35045;51.194;7.268;2022-10-31T10:18:09;17.27;;;9.93;;
49217;SDS011;35045;51.194;7.268;2022-10-31T10:20:46;17.17;;;10.32;;
49217;SDS011;35045;51.194;7.268;2022-10-31T10:26:19;17.45;;;8.30;;
49217;SDS011;35045;51.194;7.268;2022-10-31T10:28:48;17.52;;;8.52;;
49217;SDS011;35045;51.194;7.268;2022-10-31T10:31:28;14.32;;;8.25;;
49217;SDS011;35045;51.194;7.268;2022-10-31T10:36:42;14.32;;;7.43;;
49217;SDS011;35045;51.194;7.268;2022-10-31T10:39:20;19.85;;;8.13;;
49217;SDS011;35045;51.194;7.268;2022-10-31T10:41:55;15.50;;;7.80;;
49217;SDS011;35045;51.194;7.268;2022-10-31T10:44:44;14.57;;;7.30;;
49217;SDS011;35045;51.194;7.268;2022-10-31T10:47:35;15.43;;;7.63;;
49217;SDS011;35045;51.194;7.268;2022-10-31T10:50:18;13.50;;;6.90;;
49217;SDS011;35045;51.194;7.268;2022-10-31T10:55:55;11.95;;;5.88;;
49217;SDS011;35045;51.194;7.268;2022-10-31T10:58:32;12.82;;;5.85;;
49217;SDS011;35045;51.194;7.268;2022-10-31T11:00:58;13.48;;;6.35;;
49217;SDS011;35045;51.194;7.268;2022-10-31T11:03:24;13.50;;;5.78;;
49217;SDS011;35045;51.194;7.268;2022-10-31T11:05:52;16.27;;;6.15;;
49217;SDS011;35045;51.194;7.268;2022-10-31T11:11:02;12.10;;;5.20;;
49217;SDS011;35045;51.194;7.268;2022-10-31T11:13:32;14.35;;;4.90;;
49217;SDS011;35045;51.194;7.268;2022-10-31T11:16:07;12.88;;;5.60;;
49217;SDS011;35045;51.194;7.268;2022-10-31T11:18:45;15.73;;;4.90;;
49217;SDS011;35045;51.194;7.268;2022-10-31T11:21:23;12.70;;;5.45;;
49217;SDS011;35045;51.194;7.268;2022-10-31T11:26:37;16.10;;;5.18;;
49217;SDS011;35045;51.194;7.268;2022-10-31T11:29:05;10.75;;;4.80;;
49217;SDS011;35045;51.194;7.268;2022-10-31T11:31:38;13.02;;;5.20;;
49217;SDS011;35045;51.194;7.268;2022-10-31T11:34:06;10.85;;;4.97;;
49217;SDS011;35045;51.194;7.268;2022-10-31T11:36:42;11.27;;;4.70;;
49217;SDS011;35045;51.194;7.268;2022-10-31T11:39:15;11.38;;;4.85;;
49217;SDS011;35045;51.194;7.268;2022-10-31T11:41:45;11.88;;;4.57;;
49217;SDS011;35045;51.194;7.268;2022-10-31T11:44:22;11.23;;;5.35;;
49217;SDS011;35045;51.194;7.268;2022-10-31T11:46:53;13.55;;;4.57;;
49217;SDS011;35045;51.194;7.268;2022-10-31T11:49:27;12.13;;;4.85;;
49217;SDS011;35045;51.194;7.268;2022-10-31T11:51:57;10.10;;;4.07;;
49217;SDS011;35045;51.194;7.268;2022-10-31T11:54:35;11.27;;;5.15;;
49217;SDS011;35045;51.194;7.268;2022-10-31T11:57:21;10.32;;;4.75;;
49217;SDS011;35045;51.194;7.268;2022-10-31T11:59:56;13.73;;;4.22;;
49217;SDS011;35045;51.194;7.268;2022-10-31T12:02:24;11.30;;;4.78;;
49217;SDS011;35045;51.194;7.268;2022-10-31T12:07:29;10.80;;;4.43;;
49217;SDS011;35045;51.194;7.268;2022-10-31T12:09:56;11.68;;;4.63;;
49217;SDS011;35045;51.194;7.268;2022-10-31T12:17:38;14.13;;;4.75;;
49217;SDS011;35045;51.194;7.268;2022-10-31T12:20:57;11.45;;;4.40;;
49217;SDS011;35045;51.194;7.268;2022-10-31T12:26:40;11.77;;;4.80;;
49217;SDS011;35045;51.194;7.268;2022-10-31T12:29:44;14.68;;;4.90;;
49217;SDS011;35045;51.194;7.268;2022-10-31T12:40:39;13.98;;;5.22;;
49217;SDS011;35045;51.194;7.268;2022-10-31T12:46:00;12.82;;;4.95;;
49217;SDS011;35045;51.194;7.268;2022-10-31T12:57:32;11.32;;;5.15;;
49217;SDS011;35045;51.194;7.268;2022-10-31T13:00:00;15.43;;;4.75;;
49217;SDS011;35045;51.194;7.268;2022-10-31T13:02:35;11.10;;;4.35;;
49217;SDS011;35045;51.194;7.268;2022-10-31T13:05:17;12.07;;;4.90;;
49217;SDS011;35045;51.194;7.268;2022-10-31T13:07:45;10.98;;;4.43;;
49217;SDS011;35045;51.194;7.268;2022-10-31T13:10:27;13.10;;;4.68;;
49217;SDS011;35045;51.194;7.268;2022-10-31T13:13:00;11.00;;;4.65;;
49217;SDS011;35045;51.194;7.268;2022-10-31T13:15:39;12.10;;;5.18;;
49217;SDS011;35045;51.194;7.268;2022-10-31T13:18:39;9.90;;;4.57;;
49217;SDS011;35045;51.194;7.268;2022-10-31T13:21:11;15.05;;;5.18;;
49217;SDS011;35045;51.194;7.268;2022-10-31T13:23:43;10.02;;;4.93;;
49217;SDS011;35045;51.194;7.268;2022-10-31T13:26:18;9.82;;;4.85;;
49217;SDS011;35045;51.194;7.268;2022-10-31T13:28:47;10.65;;;5.13;;
49217;SDS011;35045;51.194;7.268;2022-10-31T13:31:20;11.40;;;4.55;;
49217;SDS011;35045;51.194;7.268;2022-10-31T13:33:48;11.68;;;5.45;;
49217;SDS011;35045;51.194;7.268;2022-10-31T13:36:25;13.68;;;5.25;;
49217;SDS011;35045;51.194;7.268;2022-10-31T13:39:02;13.18;;;5.28;;
49217;SDS011;35045;51.194;7.268;2022-10-31T13:41:51;12.55;;;4.90;;
49217;SDS011;35045;51.194;7.268;2022-10-31T13:44:27;14.48;;;5.00;;
49217;SDS011;35045;51.194;7.268;2022-10-31T13:46:55;13.55;;;5.20;;
49217;SDS011;35045;51.194;7.268;2022-10-31T13:54:38;13.05;;;5.18;;
49217;SDS011;35045;51.194;7.268;2022-10-31T14:00:00;16.17;;;5.63;;
49217;SDS011;35045;51.194;7.268;2022-10-31T14:02:30;14.27;;;5.63;;
49217;SDS011;35045;51.194;7.268;2022-10-31T14:05:03;16.85;;;5.53;;
49217;SDS011;35045;51.194;7.268;2022-10-31T14:07:32;12.52;;;6.00;;
49217;SDS011;35045;51.194;7.268;2022-10-31T14:10:06;18.13;;;5.35;;
49217;SDS011;35045;51.194;7.268;2022-10-31T14:12:47;13.13;;;5.15;;
49217;SDS011;35045;51.194;7.268;2022-10-31T14:17:51;14.50;;;5.50;;
49217;SDS011;35045;51.194;7.268;2022-10-31T14:20:25;15.80;;;5.28;;
49217;SDS011;35045;51.194;7.268;2022-10-31T14:22:51;12.05;;;5.47;;
49217;SDS011;35045;51.194;7.268;2022-10-31T14:25:34;12.60;;;5.43;;
49217;SDS011;35045;51.194;7.268;2022-10-31T14:28:02;11.45;;;5.30;;
49217;SDS011;35045;51.194;7.268;2022-10-31T14:30:57;12.03;;;4.30;;
49217;SDS011;35045;51.194;7.268;2022-10-31T14:33:28;14.02;;;4.78;;
49217;SDS011;35045;51.194;7.268;2022-10-31T14:36:09;12.95;;;5.20;;
49217;SDS011;35045;51.194;7.268;2022-10-31T14:42:01;13.68;;;5.63;;
49217;SDS011;35045;51.194;7.268;2022-10-31T14:52:48;11.80;;;4.63;;
49217;SDS011;35045;51.194;7.268;2022-10-31T14:55:19;11.48;;;4.03;;
49217;SDS011;35045;51.194;7.268;2022-10-31T14:57:50;15.82;;;4.53;;
49217;SDS011;35045;51.194;7.268;2022-10-31T15:00:24;15.18;;;4.15;;
49217;SDS011;35045;51.194;7.268;2022-10-31T15:02:58;6.95;;;3.45;;
49217;SDS011;35045;51.194;7.268;2022-10-31T15:05:34;16.17;;;5.13;;
49217;SDS011;35045;51.194;7.268;2022-10-31T15:08:12;12.15;;;4.40;;
49217;SDS011;35045;51.194;7.268;2022-10-31T15:10:43;11.10;;;4.15;;
49217;SDS011;35045;51.194;7.268;2022-10-31T15:13:18;14.77;;;4.72;;
49217;SDS011;35045;51.194;7.268;2022-10-31T15:15:47;11.10;;;3.70;;
49217;SDS011;35045;51.194;7.268;2022-10-31T15:18:17;9.73;;;4.13;;
49217;SDS011;35045;51.194;7.268;2022-10-31T15:20:49;12.07;;;3.70;;
49217;SDS011;35045;51.194;7.268;2022-10-31T15:23:21;11.98;;;4.22;;
49217;SDS011;35045;51.194;7.268;2022-10-31T15:26:03;12.65;;;4.10;;
49217;SDS011;35045;51.194;7.268;2022-10-31T15:28:30;9.93;;;3.58;;
49217;SDS011;35045;51.194;7.268;2022-10-31T15:30:58;15.95;;;4.05;;
49217;SDS011;35045;51.194;7.268;2022-10-31T15:33:27;16.27;;;3.60;;
49217;SDS011;35045;51.194;7.268;2022-10-31T15:35:59;11.02;;;4.10;;
49217;SDS011;35045;51.194;7.268;2022-10-31T15:38:27;10.98;;;4.32;;
49217;SDS011;35045;51.194;7.268;2022-10-31T15:40:55;11.52;;;3.85;;
49217;SDS011;35045;51.194;7.268;2022-10-31T15:43:25;10.88;;;4.28;;
49217;SDS011;35045;51.194;7.268;2022-10-31T15:46:11;11.93;;;4.17;;
49217;SDS011;35045;51.194;7.268;2022-10-31T15:48:37;13.85;;;4.20;;
49217;SDS011;35045;51.194;7.268;2022-10-31T15:51:06;8.52;;;3.55;;
49217;SDS011;35045;51.194;7.268;2022-10-31T15:53:41;10.35;;;3.85;;
49217;SDS011;35045;51.194;7.268;2022-10-31T15:56:22;9.13;;;4.00;;
49217;SDS011;35045;51.194;7.268;2022-10-31T15:58:51;11.20;;;4.15;;
49217;SDS011;35045;51.194;7.268;2022-10-31T16:01:23;9.82;;;4.38;;
49217;SDS011;35045;51.194;7.268;2022-10-31T16:03:57;10.52;;;3.92;;
49217;SDS011;35045;51.194;7.268;2022-10-31T16:06:24;13.90;;;5.00;;
49217;SDS011;35045;51.194;7.268;2022-10-31T16:08:50;13.20;;;4.18;;
49217;SDS011;35045;51.194;7.268;2022-10-31T16:11:20;12.45;;;4.25;;
49217;SDS011;35045;51.194;7.268;2022-10-31T16:16:31;15.27;;;3.90;;
49217;SDS011;35045;51.194;7.268;2022-10-31T16:19:00;12.90;;;4.18;;
49217;SDS011;35045;51.194;7.268;2022-10-31T16:21:30;9.20;;;3.97;;
49217;SDS011;35045;51.194;7.268;2022-10-31T16:24:11;15.23;;;4.03;;
49217;SDS011;35045;51.194;7.268;2022-10-31T16:26:48;14.35;;;4.30;;
49217;SDS011;35045;51.194;7.268;2022-10-31T16:32:04;14.10;;;4.53;;
49217;SDS011;35045;51.194;7.268;2022-10-31T16:34:30;11.43;;;3.60;;
49217;SDS011;35045;51.194;7.268;2022-10-31T16:36:57;13.00;;;3.80;;
49217;SDS011;35045;51.194;7.268;2022-10-31T16:39:23;13.90;;;4.70;;
49217;SDS011;35045;51.194;7.268;2022-10-31T16:41:52;9.48;;;3.70;;
49217;SDS011;35045;51.194;7.268;2022-10-31T16:44:22;11.50;;;4.00;;
49217;SDS011;35045;51.194;7.268;2022-10-31T16:47:09;12.40;;;3.70;;
49217;SDS011;35045;51.194;7.268;2022-10-31T16:49:40;11.18;;;4.65;;